createdAt,value
2022-10-24T00:01:27.243Z,7.97
2022-10-24T00:03:54.931Z,8.50
2022-10-24T00:06:22.523Z,8.32
2022-10-24T00:08:50.165Z,7.90
2022-10-24T00:11:24.627Z,7.88
2022-10-24T00:13:53.440Z,7.25
2022-10-24T00:16:21.211Z,7.97
2022-10-24T00:18:48.765Z,7.35
2022-10-24T00:21:16.192Z,7.82
2022-10-24T00:23:43.734Z,7.93
2022-10-24T00:26:12.011Z,8.63
2022-10-24T00:28:40.288Z,8.50
2022-10-24T00:31:09.183Z,8.05
2022-10-24T00:33:36.790Z,7.75
2022-10-24T00:36:04.357Z,7.30
2022-10-24T00:38:31.752Z,7.10
2022-10-24T00:40:59.191Z,8.43
2022-10-24T00:43:27.269Z,7.25
2022-10-24T00:45:57.511Z,8.48
2022-10-24T00:48:37.186Z,7.32
2022-10-24T00:51:28.137Z,7.72
2022-10-24T00:54:03.299Z,8.07
2022-10-24T00:56:45.930Z,7.60
2022-10-24T00:59:15.718Z,7.78
2022-10-24T01:01:45.108Z,7.47
2022-10-24T01:04:13.941Z,8.80
2022-10-24T01:06:46.591Z,8.35
2022-10-24T01:09:29.265Z,7.90
2022-10-24T01:12:20.676Z,8.35
2022-10-24T01:15:14.207Z,7.75
2022-10-24T01:17:52.823Z,7.00
2022-10-24T01:20:48.597Z,6.85
2022-10-24T01:23:27.024Z,6.20
2022-10-24T01:26:30.155Z,6.88
2022-10-24T01:29:19.221Z,7.03
2022-10-24T01:32:13.915Z,7.03
2022-10-24T01:34:44.564Z,6.30
2022-10-24T01:37:48.716Z,6.75
2022-10-24T01:40:22.865Z,7.28
2022-10-24T01:42:52.361Z,7.65
2022-10-24T01:45:30.013Z,7.35
2022-10-24T01:48:00.173Z,6.63
2022-10-24T01:50:29.748Z,7.13
2022-10-24T01:52:59.021Z,6.60
2022-10-24T01:55:26.866Z,6.75
2022-10-24T01:57:54.293Z,6.95
2022-10-24T02:00:23.845Z,7.10
2022-10-24T02:03:16.969Z,8.15
2022-10-24T02:05:49.406Z,7.85
2022-10-24T02:08:21.968Z,7.45
2022-10-24T02:10:54.089Z,6.82
2022-10-24T02:13:31.907Z,6.95
2022-10-24T02:16:02.971Z,6.10
2022-10-24T02:18:32.612Z,6.47
2022-10-24T02:21:07.135Z,6.60
2022-10-24T02:23:57.157Z,7.43
2022-10-24T02:26:54.060Z,8.85
2022-10-24T02:29:34.392Z,6.60
2022-10-24T02:32:06.307Z,6.82
2022-10-24T02:34:35.524Z,6.72
2022-10-24T02:37:04.115Z,7.63
2022-10-24T02:39:33.271Z,6.55
2022-10-24T02:42:03.066Z,6.15
2022-10-24T02:44:32.182Z,7.25
2022-10-24T02:47:02.367Z,7.43
2022-10-24T02:49:29.853Z,6.85
2022-10-24T02:51:57.429Z,6.70
2022-10-24T02:54:24.996Z,7.18
2022-10-24T02:56:56.678Z,6.80
2022-10-24T02:59:24.170Z,6.20
2022-10-24T03:01:51.607Z,7.05
2022-10-24T03:04:19.169Z,7.13
2022-10-24T03:06:46.651Z,6.82
2022-10-24T03:09:14.152Z,7.28
2022-10-24T03:11:41.740Z,6.75
2022-10-24T03:14:09.175Z,6.50
2022-10-24T03:16:36.638Z,6.75
2022-10-24T03:19:04.228Z,6.07
2022-10-24T03:21:31.849Z,6.82
2022-10-24T03:23:59.523Z,6.88
2022-10-24T03:26:27.025Z,6.28
2022-10-24T03:28:54.442Z,6.47
2022-10-24T03:31:21.931Z,6.28
2022-10-24T03:33:49.321Z,5.57
2022-10-24T03:36:17.234Z,5.72
2022-10-24T03:38:44.749Z,5.95
2022-10-24T03:41:12.157Z,8.05
2022-10-24T03:43:39.532Z,8.18
2022-10-24T03:46:07.129Z,9.38
2022-10-24T03:48:34.641Z,8.52
2022-10-24T03:51:02.143Z,7.60
2022-10-24T03:53:29.815Z,6.63
2022-10-24T03:55:57.534Z,7.45
2022-10-24T03:58:25.110Z,8.95
2022-10-24T04:00:52.949Z,6.25
2022-10-24T04:03:20.380Z,5.97
2022-10-24T04:05:47.817Z,6.18
2022-10-24T04:08:15.304Z,6.75
2022-10-24T04:10:42.735Z,6.07
2022-10-24T04:13:10.212Z,8.15
2022-10-24T04:15:37.696Z,8.93
2022-10-24T04:18:05.247Z,6.90
2022-10-24T04:20:32.684Z,8.65
2022-10-24T04:23:02.357Z,8.48
2022-10-24T04:25:31.971Z,9.75
2022-10-24T04:27:59.398Z,8.55
2022-10-24T04:30:28.743Z,10.18
2022-10-24T04:32:56.903Z,8.98
2022-10-24T04:35:25.854Z,7.30
2022-10-24T04:37:53.703Z,7.35
2022-10-24T04:40:21.250Z,8.15
2022-10-24T04:42:48.658Z,7.88
2022-10-24T04:45:16.229Z,7.68
2022-10-24T04:47:43.927Z,6.63
2022-10-24T04:50:11.634Z,9.35
2022-10-24T04:52:39.198Z,8.40
2022-10-24T04:55:06.904Z,7.60
2022-10-24T04:57:34.256Z,8.95
2022-10-24T05:00:01.692Z,9.07
2022-10-24T05:02:29.240Z,10.48
2022-10-24T05:04:56.742Z,12.95
2022-10-24T05:07:24.128Z,8.40
2022-10-24T05:09:51.473Z,7.65
2022-10-24T05:17:18.412Z,8.25
2022-10-24T05:19:45.940Z,7.53
2022-10-24T05:22:13.365Z,7.75
2022-10-24T05:24:40.979Z,8.63
2022-10-24T05:27:08.408Z,8.57
2022-10-24T05:29:37.046Z,8.80
2022-10-24T05:32:05.001Z,9.90
2022-10-24T05:34:32.488Z,9.70
2022-10-24T05:36:59.998Z,9.60
2022-10-24T05:39:28.160Z,9.40
2022-10-24T05:41:55.672Z,8.95
2022-10-24T05:44:23.344Z,8.80
2022-10-24T05:46:50.794Z,7.97
2022-10-24T05:49:18.635Z,8.18
2022-10-24T05:51:46.062Z,8.23
2022-10-24T05:59:13.133Z,9.60
2022-10-24T06:01:41.142Z,8.45
2022-10-24T06:04:11.366Z,8.80
2022-10-24T06:06:44.166Z,8.32
2022-10-24T06:09:12.675Z,8.73
2022-10-24T06:11:40.212Z,9.30
2022-10-24T06:14:07.623Z,9.60
2022-10-24T06:16:35.551Z,9.35
2022-10-24T06:19:03.099Z,8.98
2022-10-24T06:21:30.529Z,9.55
2022-10-24T06:23:58.222Z,9.02
2022-10-24T06:26:26.157Z,9.13
2022-10-24T06:28:54.737Z,8.75
2022-10-24T06:31:22.248Z,9.48
2022-10-24T06:33:50.287Z,10.85
2022-10-24T06:36:17.832Z,11.23
2022-10-24T06:38:45.342Z,10.80
2022-10-24T06:41:14.640Z,10.13
2022-10-24T06:43:42.543Z,9.40
2022-10-24T06:46:13.121Z,11.10
2022-10-24T06:48:40.603Z,15.18
2022-10-24T06:51:08.332Z,14.52
2022-10-24T06:53:35.828Z,12.60
2022-10-24T06:56:05.418Z,12.90
2022-10-24T06:58:35.373Z,13.88
2022-10-24T07:01:11.078Z,13.77
2022-10-24T07:03:38.672Z,13.45
2022-10-24T07:06:12.093Z,13.10
2022-10-24T07:08:39.595Z,12.55
2022-10-24T07:11:07.188Z,13.20
2022-10-24T07:13:34.654Z,14.25
2022-10-24T07:16:02.070Z,13.98
2022-10-24T07:18:29.494Z,14.80
2022-10-24T07:21:02.417Z,15.77
2022-10-24T07:23:29.955Z,16.17
2022-10-24T07:26:08.469Z,22.38
2022-10-24T07:28:38.103Z,15.73
2022-10-24T07:31:06.591Z,14.82
2022-10-24T07:33:34.438Z,15.43
2022-10-24T07:36:01.818Z,16.65
2022-10-24T07:38:29.270Z,16.58
2022-10-24T07:40:56.755Z,15.35
2022-10-24T07:43:24.391Z,14.57
2022-10-24T07:45:52.326Z,17.25
2022-10-24T07:48:20.157Z,16.17
2022-10-24T07:50:48.260Z,15.05
2022-10-24T07:53:15.816Z,14.98
2022-10-24T07:55:44.085Z,16.00
2022-10-24T07:58:12.213Z,14.52
2022-10-24T08:00:44.866Z,14.77
2022-10-24T08:03:13.584Z,15.57
2022-10-24T08:05:41.742Z,14.55
2022-10-24T08:08:30.665Z,14.77
2022-10-24T08:10:57.559Z,16.02
2022-10-24T08:13:25.187Z,17.77
2022-10-24T08:15:52.661Z,16.38
2022-10-24T08:18:20.048Z,16.83
2022-10-24T08:20:57.914Z,18.08
2022-10-24T08:23:25.720Z,16.65
2022-10-24T08:25:53.709Z,16.20
2022-10-24T08:28:21.258Z,16.92
2022-10-24T08:30:59.643Z,15.88
2022-10-24T08:33:27.255Z,15.52
2022-10-24T08:35:59.268Z,14.88
2022-10-24T08:38:28.204Z,14.68
2022-10-24T08:40:57.127Z,14.90
2022-10-24T08:43:25.643Z,14.48
2022-10-24T08:45:53.027Z,15.80
2022-10-24T08:48:28.435Z,15.75
2022-10-24T08:51:08.996Z,16.42
2022-10-24T08:53:36.830Z,15.57
2022-10-24T08:56:06.571Z,15.18
2022-10-24T08:58:42.894Z,15.63
2022-10-24T09:01:31.434Z,15.18
2022-10-24T09:04:03.890Z,14.68
2022-10-24T09:06:33.230Z,14.73
2022-10-24T09:09:09.614Z,15.70
2022-10-24T09:12:03.003Z,16.17
2022-10-24T09:14:32.825Z,16.23
2022-10-24T09:17:14.473Z,16.67
2022-10-24T09:19:48.907Z,16.63
2022-10-24T09:22:17.360Z,16.58
2022-10-24T09:24:53.589Z,16.70
2022-10-24T09:27:25.594Z,16.25
2022-10-24T09:29:53.225Z,15.80
2022-10-24T09:32:23.368Z,13.82
2022-10-24T09:34:50.823Z,14.85
2022-10-24T09:37:41.240Z,13.93
2022-10-24T09:40:19.192Z,15.25
2022-10-24T09:43:11.351Z,13.65
2022-10-24T09:45:42.265Z,13.73
2022-10-24T09:48:30.678Z,13.07
2022-10-24T09:50:59.886Z,13.75
2022-10-24T09:53:36.352Z,12.75
2022-10-24T09:56:13.191Z,12.95
2022-10-24T09:58:41.715Z,13.10
2022-10-24T10:01:29.474Z,14.30
2022-10-24T10:04:09.385Z,13.90
2022-10-24T10:06:48.207Z,13.05
2022-10-24T10:09:24.714Z,14.57
2022-10-24T10:12:03.019Z,13.63
2022-10-24T10:14:31.019Z,12.95
2022-10-24T10:17:05.271Z,12.05
2022-10-24T10:19:39.081Z,12.80
2022-10-24T10:22:23.685Z,13.05
2022-10-24T10:24:51.482Z,15.35
2022-10-24T10:27:40.409Z,14.20
2022-10-24T10:30:17.356Z,14.15
2022-10-24T10:32:53.548Z,12.77
2022-10-24T10:35:32.310Z,13.32
2022-10-24T10:38:17.675Z,13.38
2022-10-24T10:40:50.188Z,14.30
2022-10-24T10:43:36.459Z,13.55
2022-10-24T10:46:30.012Z,14.80
2022-10-24T10:49:15.310Z,13.68
2022-10-24T10:51:57.557Z,14.27
2022-10-24T10:54:52.928Z,15.35
2022-10-24T10:57:28.870Z,13.70
2022-10-24T11:00:08.734Z,14.27
2022-10-24T11:02:52.959Z,12.43
2022-10-24T11:05:58.314Z,13.88
2022-10-24T11:08:33.478Z,13.13
2022-10-24T11:11:05.300Z,12.65
2022-10-24T11:14:17.271Z,13.40
2022-10-24T11:16:45.858Z,12.97
2022-10-24T11:19:28.777Z,14.95
2022-10-24T11:22:00.510Z,11.75
2022-10-24T11:24:30.914Z,12.90
2022-10-24T11:27:09.334Z,12.48
2022-10-24T11:29:40.351Z,13.98
2022-10-24T11:32:20.781Z,12.80
2022-10-24T11:35:40.595Z,14.07
2022-10-24T11:38:16.072Z,12.27
2022-10-24T11:40:48.202Z,12.73
2022-10-24T11:46:38.660Z,12.35
2022-10-24T11:51:59.622Z,11.30
2022-10-24T11:54:35.037Z,12.35
2022-10-24T11:57:09.197Z,11.55
2022-10-24T11:59:39.710Z,10.63
2022-10-24T12:03:24.347Z,11.20
2022-10-24T12:06:17.620Z,10.38
2022-10-24T12:09:05.765Z,11.93
2022-10-24T12:11:51.862Z,11.73
2022-10-24T12:14:38.548Z,10.95
2022-10-24T12:17:31.043Z,12.25
2022-10-24T12:20:01.569Z,11.32
2022-10-24T12:22:36.228Z,10.15
2022-10-24T12:25:06.628Z,10.65
2022-10-24T12:27:38.937Z,12.52
2022-10-24T12:30:09.226Z,11.35
2022-10-24T12:32:43.355Z,10.90
2022-10-24T12:35:33.897Z,11.55
2022-10-24T12:38:15.471Z,11.50
2022-10-24T12:40:46.015Z,9.63
2022-10-24T12:43:30.159Z,10.18
2022-10-24T12:46:01.880Z,11.40
2022-10-24T12:48:31.381Z,10.43
2022-10-24T12:51:36.959Z,10.48
2022-10-24T12:54:13.410Z,11.50
2022-10-24T12:56:50.084Z,11.30
2022-10-24T12:59:29.551Z,11.63
2022-10-24T13:02:21.332Z,10.80
2022-10-24T13:04:52.385Z,11.38
2022-10-24T13:07:50.957Z,12.73
2022-10-24T13:10:33.771Z,14.48
2022-10-24T13:15:54.711Z,13.30
2022-10-24T13:18:31.115Z,13.68
2022-10-24T13:21:16.223Z,11.25
2022-10-24T13:23:46.773Z,13.40
2022-10-24T13:26:38.777Z,13.10
2022-10-24T13:29:12.625Z,14.00
2022-10-24T13:31:42.551Z,13.18
2022-10-24T13:34:23.156Z,12.57
2022-10-24T13:37:22.535Z,13.75
2022-10-24T13:39:55.320Z,13.07
2022-10-24T13:42:35.081Z,11.90
2022-10-24T13:45:25.708Z,12.15
2022-10-24T13:48:01.986Z,12.95
2022-10-24T13:50:33.653Z,11.77
2022-10-24T13:53:12.295Z,11.43
2022-10-24T13:55:44.175Z,12.80
2022-10-24T13:58:16.217Z,12.65
2022-10-24T14:00:47.635Z,14.07
2022-10-24T14:03:17.958Z,15.37
2022-10-24T14:05:51.962Z,14.35
2022-10-24T14:08:38.186Z,14.82
2022-10-24T14:11:08.511Z,14.43
2022-10-24T14:13:45.560Z,13.95
2022-10-24T14:16:13.622Z,14.82
2022-10-24T14:18:41.841Z,14.60
2022-10-24T14:21:22.766Z,14.38
2022-10-24T14:24:03.316Z,15.73
2022-10-24T14:26:30.989Z,14.60
2022-10-24T14:29:00.984Z,15.27
2022-10-24T14:31:34.753Z,14.95
2022-10-24T14:34:06.222Z,15.85
2022-10-24T14:36:37.868Z,16.52
2022-10-24T14:39:05.685Z,16.30
2022-10-24T14:41:40.995Z,17.50
2022-10-24T14:44:14.118Z,17.50
2022-10-24T14:46:44.633Z,16.35
2022-10-24T14:49:29.931Z,17.00
2022-10-24T14:52:08.972Z,15.55
2022-10-24T14:54:37.245Z,16.33
2022-10-24T14:57:10.250Z,15.18
2022-10-24T14:59:44.237Z,13.70
2022-10-24T15:02:23.623Z,12.65
2022-10-24T15:04:52.127Z,13.15
2022-10-24T15:07:40.727Z,11.48
2022-10-24T15:10:13.311Z,12.35
2022-10-24T15:12:53.453Z,11.25
2022-10-24T15:15:27.745Z,11.27
2022-10-24T15:17:59.637Z,11.77
2022-10-24T15:20:29.970Z,12.18
2022-10-24T15:23:00.967Z,11.65
2022-10-24T15:25:30.944Z,13.43
2022-10-24T15:27:59.533Z,13.30
2022-10-24T15:30:39.309Z,12.55
2022-10-24T15:33:06.981Z,12.63
2022-10-24T15:35:39.532Z,11.57
2022-10-24T15:38:17.431Z,12.13
2022-10-24T15:40:47.196Z,12.85
2022-10-24T15:43:17.700Z,11.48
2022-10-24T15:45:45.843Z,12.30
2022-10-24T15:48:13.309Z,11.77
2022-10-24T15:50:46.217Z,11.98
2022-10-24T15:53:19.742Z,11.88
2022-10-24T15:55:47.306Z,12.20
2022-10-24T15:58:16.742Z,13.50
2022-10-24T16:00:44.717Z,14.55
2022-10-24T16:03:17.441Z,12.60
2022-10-24T16:05:50.550Z,12.52
2022-10-24T16:08:19.842Z,12.57
2022-10-24T16:10:51.860Z,13.60
2022-10-24T16:13:21.861Z,13.32
2022-10-24T16:15:50.051Z,15.07
2022-10-24T16:18:17.663Z,11.90
2022-10-24T16:20:45.189Z,12.68
2022-10-24T16:23:16.095Z,12.68
2022-10-24T16:25:43.942Z,12.35
2022-10-24T16:28:11.568Z,12.57
2022-10-24T16:30:40.470Z,12.02
2022-10-24T16:33:08.355Z,12.63
2022-10-24T16:35:37.473Z,11.55
2022-10-24T16:38:06.857Z,12.55
2022-10-24T16:40:43.129Z,12.23
2022-10-24T16:43:12.516Z,12.63
2022-10-24T16:45:40.208Z,13.85
2022-10-24T16:48:07.707Z,15.43
2022-10-24T16:50:35.563Z,15.85
2022-10-24T16:53:07.003Z,16.15
2022-10-24T16:55:34.766Z,17.75
2022-10-24T16:58:02.223Z,16.90
2022-10-24T17:00:30.425Z,17.23
2022-10-24T17:02:58.553Z,17.48
2022-10-24T17:05:28.315Z,17.88
2022-10-24T17:07:55.762Z,17.50
2022-10-24T17:10:24.841Z,17.90
2022-10-24T17:12:53.374Z,17.50
2022-10-24T17:15:22.334Z,19.77
2022-10-24T17:17:50.307Z,18.73
2022-10-24T17:20:17.849Z,19.80
2022-10-24T17:22:46.527Z,19.75
2022-10-24T17:25:26.314Z,20.67
2022-10-24T17:27:55.107Z,19.13
2022-10-24T17:30:25.351Z,19.42
2022-10-24T17:32:53.449Z,19.60
2022-10-24T17:35:23.437Z,20.13
2022-10-24T17:37:50.799Z,20.83
2022-10-24T17:40:25.212Z,20.55
2022-10-24T17:42:52.861Z,20.17
2022-10-24T17:45:23.135Z,20.13
2022-10-24T17:47:50.935Z,19.88
2022-10-24T17:50:19.347Z,20.40
2022-10-24T17:52:50.988Z,24.88
2022-10-24T17:55:45.100Z,21.58
2022-10-24T17:58:12.788Z,19.70
2022-10-24T18:00:40.915Z,20.20
2022-10-24T18:03:11.321Z,19.38
2022-10-24T18:05:39.102Z,20.10
2022-10-24T18:08:09.054Z,19.83
2022-10-24T18:10:37.961Z,19.00
2022-10-24T18:13:05.878Z,19.00
2022-10-24T18:15:33.699Z,18.23
2022-10-24T18:18:01.144Z,20.25
2022-10-24T18:20:28.619Z,18.25
2022-10-24T18:22:56.087Z,19.17
2022-10-24T18:25:23.706Z,18.85
2022-10-24T18:27:51.482Z,17.40
2022-10-24T18:30:19.606Z,18.67
2022-10-24T18:32:47.506Z,18.92
2022-10-24T18:35:15.690Z,17.65
2022-10-24T18:37:43.227Z,18.45
2022-10-24T18:40:11.317Z,18.83
2022-10-24T18:43:05.251Z,18.80
2022-10-24T18:45:33.479Z,18.73
2022-10-24T18:48:01.342Z,18.85
2022-10-24T18:50:29.587Z,17.40
2022-10-24T18:53:08.329Z,18.67
2022-10-24T18:55:36.441Z,16.30
2022-10-24T18:58:04.108Z,17.60
2022-10-24T19:00:33.209Z,19.30
2022-10-24T19:03:25.165Z,20.40
2022-10-24T19:06:14.932Z,19.00
2022-10-24T19:08:42.454Z,19.77
2022-10-24T19:11:14.179Z,20.75
2022-10-24T19:13:44.733Z,17.17
2022-10-24T19:16:18.147Z,18.40
2022-10-24T19:18:54.125Z,17.80
2022-10-24T19:21:21.947Z,18.58
2022-10-24T19:23:50.882Z,22.55
2022-10-24T19:26:18.344Z,22.85
2022-10-24T19:28:45.780Z,22.63
2022-10-24T19:31:14.934Z,23.17
2022-10-24T19:33:42.673Z,22.77
2022-10-24T19:36:13.339Z,22.58
2022-10-24T19:38:44.277Z,22.73
2022-10-24T19:41:11.790Z,21.08
2022-10-24T19:43:39.317Z,21.02
2022-10-24T19:46:18.722Z,21.52
2022-10-24T19:48:51.246Z,22.42
2022-10-24T19:51:20.185Z,22.55
2022-10-24T19:53:49.695Z,23.27
2022-10-24T19:56:25.225Z,22.30
2022-10-24T19:58:54.222Z,21.35
2022-10-24T20:01:24.670Z,25.77
2022-10-24T20:03:52.593Z,22.65
2022-10-24T20:06:20.055Z,21.98
2022-10-24T20:08:48.539Z,23.23
2022-10-24T20:11:16.841Z,23.58
2022-10-24T20:13:44.424Z,23.77
2022-10-24T20:16:13.409Z,23.75
2022-10-24T20:18:43.019Z,23.80
2022-10-24T20:21:12.283Z,22.98
2022-10-24T20:23:41.614Z,22.33
2022-10-24T20:26:15.150Z,21.13
2022-10-24T20:28:45.282Z,20.30
2022-10-24T20:31:30.360Z,20.67
2022-10-24T20:34:06.900Z,22.02
2022-10-24T20:36:38.082Z,21.90
2022-10-24T20:39:07.257Z,22.70
2022-10-24T20:41:35.016Z,22.85
2022-10-24T20:44:02.962Z,22.45
2022-10-24T20:46:31.484Z,23.27
2022-10-24T20:48:59.264Z,23.55
2022-10-24T20:51:27.156Z,24.33
2022-10-24T20:53:54.783Z,22.15
2022-10-24T20:56:26.087Z,23.15
2022-10-24T20:58:55.064Z,21.40
2022-10-24T21:01:24.997Z,23.52
2022-10-24T21:03:53.198Z,22.80
2022-10-24T21:06:26.717Z,21.42
2022-10-24T21:08:56.894Z,22.50
2022-10-24T21:11:27.687Z,21.85
2022-10-24T21:14:07.389Z,22.02
2022-10-24T21:16:34.870Z,21.80
2022-10-24T21:19:02.979Z,22.33
2022-10-24T21:21:30.482Z,21.75
2022-10-24T21:24:03.819Z,21.48
2022-10-24T21:26:38.302Z,21.90
2022-10-24T21:29:09.430Z,20.00
2022-10-24T21:31:51.403Z,22.60
2022-10-24T21:34:19.703Z,21.27
2022-10-24T21:36:47.388Z,22.05
2022-10-24T21:39:16.162Z,21.05
2022-10-24T21:41:44.159Z,20.50
2022-10-24T21:44:11.966Z,21.65
2022-10-24T21:46:39.359Z,21.35
2022-10-24T21:49:06.824Z,21.42
2022-10-24T21:51:36.884Z,20.92
2022-10-24T21:54:08.237Z,21.10
2022-10-24T21:56:36.815Z,19.80
2022-10-24T21:59:06.601Z,21.67
2022-10-24T22:01:37.062Z,20.92
2022-10-24T22:04:06.193Z,20.80
2022-10-24T22:06:35.400Z,19.90
2022-10-24T22:09:04.669Z,20.27
2022-10-24T22:11:34.038Z,23.00
2022-10-24T22:14:03.311Z,22.35
2022-10-24T22:16:32.108Z,21.25
2022-10-24T22:19:01.668Z,20.38
2022-10-24T22:21:37.708Z,21.00
2022-10-24T22:24:13.978Z,21.63
2022-10-24T22:26:41.839Z,22.33
2022-10-24T22:29:10.833Z,23.10
2022-10-24T22:31:38.718Z,23.60
2022-10-24T22:34:06.529Z,21.40
2022-10-24T22:36:45.822Z,22.27
2022-10-24T22:39:16.684Z,20.58
2022-10-24T22:41:45.764Z,21.95
2022-10-24T22:44:15.303Z,22.35
2022-10-24T22:47:07.116Z,22.13
2022-10-24T22:49:52.785Z,22.87
2022-10-24T22:52:20.594Z,22.98
2022-10-24T22:54:48.294Z,22.38
2022-10-24T22:57:16.045Z,22.52
2022-10-24T22:59:43.726Z,22.63
2022-10-24T23:02:33.943Z,21.63
2022-10-24T23:05:05.986Z,20.38
2022-10-24T23:07:49.329Z,21.27
2022-10-24T23:10:21.942Z,21.25
2022-10-24T23:12:50.125Z,21.73
2022-10-24T23:15:19.752Z,20.67
2022-10-24T23:17:48.425Z,20.52
2022-10-24T23:20:27.822Z,21.60
2022-10-24T23:23:09.054Z,20.23
2022-10-24T23:25:49.680Z,22.00
2022-10-24T23:28:30.370Z,19.77
2022-10-24T23:30:57.935Z,19.65
2022-10-24T23:33:28.759Z,20.05
2022-10-24T23:36:00.052Z,19.70
2022-10-24T23:38:28.000Z,18.17
2022-10-24T23:40:55.891Z,19.02
2022-10-24T23:43:23.618Z,19.38
2022-10-24T23:46:02.096Z,19.08
2022-10-24T23:49:00.546Z,20.27
2022-10-24T23:51:43.684Z,18.98
2022-10-24T23:54:12.657Z,20.10
2022-10-24T23:56:40.607Z,19.15
2022-10-24T23:59:08.072Z,19.48
